sensor_id;sensor_type;location;lat;lon;timestamp;temperature;humidity
15983;DHT22;14442;50.196;8.096;2023-09-08T00:02:27;21.90;72.40
15983;DHT22;14442;50.196;8.096;2023-09-08T00:04:54;22.00;72.50
15983;DHT22;14442;50.196;8.096;2023-09-08T00:07:21;22.00;72.60
15983;DHT22;14442;50.196;8.096;2023-09-08T00:09:48;21.90;72.40
15983;DHT22;14442;50.196;8.096;2023-09-08T00:12:16;21.90;72.40
15983;DHT22;14442;50.196;8.096;2023-09-08T00:14:43;22.00;72.50
15983;DHT22;14442;50.196;8.096;2023-09-08T00:17:10;21.90;72.50
15983;DHT22;14442;50.196;8.096;2023-09-08T00:19:36;21.90;72.50
15983;DHT22;14442;50.196;8.096;2023-09-08T00:22:04;21.90;72.50
15983;DHT22;14442;50.196;8.096;2023-09-08T00:24:32;21.90;72.60
15983;DHT22;14442;50.196;8.096;2023-09-08T00:26:59;21.90;72.60
15983;DHT22;14442;50.196;8.096;2023-09-08T00:29:27;21.90;72.40
15983;DHT22;14442;50.196;8.096;2023-09-08T00:31:53;21.90;72.50
15983;DHT22;14442;50.196;8.096;2023-09-08T00:34:20;21.90;72.50
15983;DHT22;14442;50.196;8.096;2023-09-08T00:36:47;21.90;72.50
15983;DHT22;14442;50.196;8.096;2023-09-08T00:39:13;21.90;72.40
15983;DHT22;14442;50.196;8.096;2023-09-08T00:41:40;21.90;72.40
15983;DHT22;14442;50.196;8.096;2023-09-08T00:44:07;21.90;72.50
15983;DHT22;14442;50.196;8.096;2023-09-08T00:46:35;21.90;72.40
15983;DHT22;14442;50.196;8.096;2023-09-08T00:49:02;21.90;72.40
15983;DHT22;14442;50.196;8.096;2023-09-08T00:51:29;21.90;72.30
15983;DHT22;14442;50.196;8.096;2023-09-08T00:53:56;21.90;72.30
15983;DHT22;14442;50.196;8.096;2023-09-08T00:56:23;21.90;72.20
15983;DHT22;14442;50.196;8.096;2023-09-08T00:58:50;21.90;72.30
15983;DHT22;14442;50.196;8.096;2023-09-08T01:01:16;21.90;72.20
15983;DHT22;14442;50.196;8.096;2023-09-08T01:03:44;21.90;72.30
15983;DHT22;14442;50.196;8.096;2023-09-08T01:06:11;21.80;72.20
15983;DHT22;14442;50.196;8.096;2023-09-08T01:08:38;21.90;72.30
15983;DHT22;14442;50.196;8.096;2023-09-08T01:11:06;21.80;72.10
15983;DHT22;14442;50.196;8.096;2023-09-08T01:13:33;21.80;72.10
15983;DHT22;14442;50.196;8.096;2023-09-08T01:16:00;21.80;72.10
15983;DHT22;14442;50.196;8.096;2023-09-08T01:18:27;21.80;72.10
15983;DHT22;14442;50.196;8.096;2023-09-08T01:21:14;21.80;72.10
15983;DHT22;14442;50.196;8.096;2023-09-08T01:24:02;21.80;72.00
15983;DHT22;14442;50.196;8.096;2023-09-08T01:26:37;21.80;72.00
15983;DHT22;14442;50.196;8.096;2023-09-08T01:29:07;21.80;72.00
15983;DHT22;14442;50.196;8.096;2023-09-08T01:31:35;21.80;72.10
15983;DHT22;14442;50.196;8.096;2023-09-08T01:34:03;21.80;72.10
15983;DHT22;14442;50.196;8.096;2023-09-08T01:36:32;21.80;72.20
15983;DHT22;14442;50.196;8.096;2023-09-08T01:38:59;21.80;72.20
15983;DHT22;14442;50.196;8.096;2023-09-08T01:41:25;21.80;72.10
15983;DHT22;14442;50.196;8.096;2023-09-08T01:43:53;21.80;72.20
15983;DHT22;14442;50.196;8.096;2023-09-08T01:46:21;21.80;72.20
15983;DHT22;14442;50.196;8.096;2023-09-08T01:48:47;21.70;72.00
15983;DHT22;14442;50.196;8.096;2023-09-08T01:51:14;21.70;72.20
15983;DHT22;14442;50.196;8.096;2023-09-08T01:53:41;21.70;72.20
15983;DHT22;14442;50.196;8.096;2023-09-08T01:56:07;21.70;72.20
15983;DHT22;14442;50.196;8.096;2023-09-08T01:58:34;21.70;72.30
15983;DHT22;14442;50.196;8.096;2023-09-08T02:01:02;21.70;72.10
15983;DHT22;14442;50.196;8.096;2023-09-08T02:03:31;21.70;72.10
15983;DHT22;14442;50.196;8.096;2023-09-08T02:05:57;21.70;72.30
15983;DHT22;14442;50.196;8.096;2023-09-08T02:08:24;21.70;72.30
15983;DHT22;14442;50.196;8.096;2023-09-08T02:10:51;21.70;72.20
15983;DHT22;14442;50.196;8.096;2023-09-08T02:13:18;21.70;72.20
15983;DHT22;14442;50.196;8.096;2023-09-08T02:15:44;21.70;72.40
15983;DHT22;14442;50.196;8.096;2023-09-08T02:18:12;21.70;72.20
15983;DHT22;14442;50.196;8.096;2023-09-08T02:20:39;21.70;72.30
15983;DHT22;14442;50.196;8.096;2023-09-08T02:23:06;21.70;72.10
15983;DHT22;14442;50.196;8.096;2023-09-08T02:25:33;21.60;72.20
15983;DHT22;14442;50.196;8.096;2023-09-08T02:28:00;21.70;72.30
15983;DHT22;14442;50.196;8.096;2023-09-08T02:30:27;21.60;72.10
15983;DHT22;14442;50.196;8.096;2023-09-08T02:32:53;21.60;72.00
15983;DHT22;14442;50.196;8.096;2023-09-08T02:35:22;21.60;72.00
15983;DHT22;14442;50.196;8.096;2023-09-08T02:37:49;21.70;71.90
15983;DHT22;14442;50.196;8.096;2023-09-08T02:40:16;21.60;72.10
15983;DHT22;14442;50.196;8.096;2023-09-08T02:42:43;21.60;72.00
15983;DHT22;14442;50.196;8.096;2023-09-08T02:45:10;21.60;72.10
15983;DHT22;14442;50.196;8.096;2023-09-08T02:47:37;21.60;72.00
15983;DHT22;14442;50.196;8.096;2023-09-08T02:50:04;21.60;72.00
15983;DHT22;14442;50.196;8.096;2023-09-08T02:52:32;21.60;71.80
15983;DHT22;14442;50.196;8.096;2023-09-08T02:54:59;21.60;72.00
15983;DHT22;14442;50.196;8.096;2023-09-08T02:57:26;21.60;71.90
15983;DHT22;14442;50.196;8.096;2023-09-08T02:59:53;21.60;71.90
15983;DHT22;14442;50.196;8.096;2023-09-08T03:02:21;21.60;71.90
15983;DHT22;14442;50.196;8.096;2023-09-08T03:04:48;21.60;72.10
15983;DHT22;14442;50.196;8.096;2023-09-08T03:07:15;21.60;72.20
15983;DHT22;14442;50.196;8.096;2023-09-08T03:09:43;21.60;72.10
15983;DHT22;14442;50.196;8.096;2023-09-08T03:12:10;21.60;72.00
15983;DHT22;14442;50.196;8.096;2023-09-08T03:14:36;21.60;72.40
15983;DHT22;14442;50.196;8.096;2023-09-08T03:17:03;21.60;72.80
15983;DHT22;14442;50.196;8.096;2023-09-08T03:19:30;21.60;72.60
15983;DHT22;14442;50.196;8.096;2023-09-08T03:21:57;21.60;72.60
15983;DHT22;14442;50.196;8.096;2023-09-08T03:24:24;21.60;72.60
15983;DHT22;14442;50.196;8.096;2023-09-08T03:26:52;21.70;72.50
15983;DHT22;14442;50.196;8.096;2023-09-08T03:29:18;21.60;72.20
15983;DHT22;14442;50.196;8.096;2023-09-08T03:31:45;21.60;71.80
15983;DHT22;14442;50.196;8.096;2023-09-08T03:34:12;21.60;71.60
15983;DHT22;14442;50.196;8.096;2023-09-08T03:36:39;21.60;71.20
15983;DHT22;14442;50.196;8.096;2023-09-08T03:39:06;21.50;70.90
15983;DHT22;14442;50.196;8.096;2023-09-08T03:41:34;21.50;70.80
15983;DHT22;14442;50.196;8.096;2023-09-08T03:44:03;21.50;70.60
15983;DHT22;14442;50.196;8.096;2023-09-08T03:46:30;21.50;70.40
15983;DHT22;14442;50.196;8.096;2023-09-08T03:48:56;21.50;70.20
15983;DHT22;14442;50.196;8.096;2023-09-08T03:51:26;21.50;70.20
15983;DHT22;14442;50.196;8.096;2023-09-08T03:53:53;21.50;69.90
15983;DHT22;14442;50.196;8.096;2023-09-08T03:56:20;21.50;69.90
15983;DHT22;14442;50.196;8.096;2023-09-08T03:58:47;21.50;69.80
15983;DHT22;14442;50.196;8.096;2023-09-08T04:01:15;21.50;69.50
15983;DHT22;14442;50.196;8.096;2023-09-08T04:03:41;21.50;69.30
15983;DHT22;14442;50.196;8.096;2023-09-08T04:06:09;21.50;69.40
15983;DHT22;14442;50.196;8.096;2023-09-08T04:08:36;21.50;69.40
15983;DHT22;14442;50.196;8.096;2023-09-08T04:11:02;21.40;69.10
15983;DHT22;14442;50.196;8.096;2023-09-08T04:13:29;21.40;69.00
15983;DHT22;14442;50.196;8.096;2023-09-08T04:15:56;21.40;69.00
15983;DHT22;14442;50.196;8.096;2023-09-08T04:18:24;21.40;69.10
15983;DHT22;14442;50.196;8.096;2023-09-08T04:20:50;21.40;69.20
15983;DHT22;14442;50.196;8.096;2023-09-08T04:23:17;21.40;69.40
15983;DHT22;14442;50.196;8.096;2023-09-08T04:25:44;21.30;69.30
15983;DHT22;14442;50.196;8.096;2023-09-08T04:28:11;21.30;69.20
15983;DHT22;14442;50.196;8.096;2023-09-08T04:30:37;21.30;69.20
15983;DHT22;14442;50.196;8.096;2023-09-08T04:33:04;21.20;68.80
15983;DHT22;14442;50.196;8.096;2023-09-08T04:35:32;21.20;68.70
15983;DHT22;14442;50.196;8.096;2023-09-08T04:37:59;21.20;68.40
15983;DHT22;14442;50.196;8.096;2023-09-08T04:40:26;21.20;68.20
15983;DHT22;14442;50.196;8.096;2023-09-08T04:42:52;21.10;67.80
15983;DHT22;14442;50.196;8.096;2023-09-08T04:45:19;21.10;67.40
15983;DHT22;14442;50.196;8.096;2023-09-08T04:47:46;21.10;66.90
15983;DHT22;14442;50.196;8.096;2023-09-08T04:50:13;21.00;66.70
15983;DHT22;14442;50.196;8.096;2023-09-08T04:52:41;21.00;66.20
15983;DHT22;14442;50.196;8.096;2023-09-08T04:55:09;21.00;65.90
15983;DHT22;14442;50.196;8.096;2023-09-08T04:57:36;21.00;65.50
15983;DHT22;14442;50.196;8.096;2023-09-08T05:00:03;20.90;65.30
15983;DHT22;14442;50.196;8.096;2023-09-08T05:02:29;20.90;65.20
15983;DHT22;14442;50.196;8.096;2023-09-08T05:04:56;20.90;64.40
15983;DHT22;14442;50.196;8.096;2023-09-08T05:07:23;20.90;64.30
15983;DHT22;14442;50.196;8.096;2023-09-08T05:09:51;20.90;64.30
15983;DHT22;14442;50.196;8.096;2023-09-08T05:12:18;20.90;64.50
15983;DHT22;14442;50.196;8.096;2023-09-08T05:14:44;20.80;63.70
15983;DHT22;14442;50.196;8.096;2023-09-08T05:17:11;20.80;63.70
15983;DHT22;14442;50.196;8.096;2023-09-08T05:19:38;20.80;63.30
15983;DHT22;14442;50.196;8.096;2023-09-08T05:22:05;20.80;63.80
15983;DHT22;14442;50.196;8.096;2023-09-08T05:24:32;20.80;63.70
15983;DHT22;14442;50.196;8.096;2023-09-08T05:27:00;20.80;63.80
15983;DHT22;14442;50.196;8.096;2023-09-08T05:29:26;20.80;63.30
15983;DHT22;14442;50.196;8.096;2023-09-08T05:31:53;20.80;63.50
15983;DHT22;14442;50.196;8.096;2023-09-08T05:34:20;20.70;63.20
15983;DHT22;14442;50.196;8.096;2023-09-08T05:36:47;20.70;63.20
15983;DHT22;14442;50.196;8.096;2023-09-08T05:39:14;20.70;63.10
15983;DHT22;14442;50.196;8.096;2023-09-08T05:41:43;20.70;63.00
15983;DHT22;14442;50.196;8.096;2023-09-08T05:44:11;20.70;63.00
15983;DHT22;14442;50.196;8.096;2023-09-08T05:46:38;20.70;63.00
15983;DHT22;14442;50.196;8.096;2023-09-08T05:49:04;20.80;63.20
15983;DHT22;14442;50.196;8.096;2023-09-08T05:51:32;20.80;63.30
15983;DHT22;14442;50.196;8.096;2023-09-08T05:53:58;20.80;63.40
15983;DHT22;14442;50.196;8.096;2023-09-08T05:56:29;20.80;63.50
15983;DHT22;14442;50.196;8.096;2023-09-08T05:58:57;20.70;64.00
15983;DHT22;14442;50.196;8.096;2023-09-08T06:01:25;20.80;63.90
15983;DHT22;14442;50.196;8.096;2023-09-08T06:03:51;20.80;64.30
15983;DHT22;14442;50.196;8.096;2023-09-08T06:06:19;20.80;64.40
15983;DHT22;14442;50.196;8.096;2023-09-08T06:08:46;20.80;64.50
15983;DHT22;14442;50.196;8.096;2023-09-08T06:11:13;20.80;64.70
15983;DHT22;14442;50.196;8.096;2023-09-08T06:13:40;20.80;64.70
15983;DHT22;14442;50.196;8.096;2023-09-08T06:16:07;20.80;64.70
15983;DHT22;14442;50.196;8.096;2023-09-08T06:18:35;20.80;64.70
15983;DHT22;14442;50.196;8.096;2023-09-08T06:21:05;20.80;64.80
15983;DHT22;14442;50.196;8.096;2023-09-08T06:23:32;20.80;64.90
15983;DHT22;14442;50.196;8.096;2023-09-08T06:25:59;20.80;65.00
15983;DHT22;14442;50.196;8.096;2023-09-08T06:28:26;20.70;65.10
15983;DHT22;14442;50.196;8.096;2023-09-08T06:30:53;20.70;65.10
15983;DHT22;14442;50.196;8.096;2023-09-08T06:33:20;20.70;65.10
15983;DHT22;14442;50.196;8.096;2023-09-08T06:35:49;20.70;65.20
15983;DHT22;14442;50.196;8.096;2023-09-08T06:38:15;20.70;65.30
15983;DHT22;14442;50.196;8.096;2023-09-08T06:40:42;20.80;65.40
15983;DHT22;14442;50.196;8.096;2023-09-08T06:43:09;20.80;65.50
15983;DHT22;14442;50.196;8.096;2023-09-08T06:45:37;20.80;65.60
15983;DHT22;14442;50.196;8.096;2023-09-08T06:48:05;20.80;65.70
15983;DHT22;14442;50.196;8.096;2023-09-08T06:50:32;20.80;65.70
15983;DHT22;14442;50.196;8.096;2023-09-08T06:53:00;20.80;65.70
15983;DHT22;14442;50.196;8.096;2023-09-08T06:55:27;20.80;66.10
15983;DHT22;14442;50.196;8.096;2023-09-08T06:57:53;20.80;66.10
15983;DHT22;14442;50.196;8.096;2023-09-08T07:00:20;20.90;66.00
15983;DHT22;14442;50.196;8.096;2023-09-08T07:02:47;20.90;66.40
15983;DHT22;14442;50.196;8.096;2023-09-08T07:05:15;20.90;66.50
15983;DHT22;14442;50.196;8.096;2023-09-08T07:07:42;21.00;66.80
15983;DHT22;14442;50.196;8.096;2023-09-08T07:10:12;21.00;66.80
15983;DHT22;14442;50.196;8.096;2023-09-08T07:12:39;21.00;66.70
15983;DHT22;14442;50.196;8.096;2023-09-08T07:15:06;21.00;66.80
15983;DHT22;14442;50.196;8.096;2023-09-08T07:17:34;21.00;66.80
15983;DHT22;14442;50.196;8.096;2023-09-08T07:20:00;21.10;67.00
15983;DHT22;14442;50.196;8.096;2023-09-08T07:22:28;21.10;67.00
15983;DHT22;14442;50.196;8.096;2023-09-08T07:24:54;21.10;67.10
15983;DHT22;14442;50.196;8.096;2023-09-08T07:27:22;21.10;67.10
15983;DHT22;14442;50.196;8.096;2023-09-08T07:29:49;21.10;67.30
15983;DHT22;14442;50.196;8.096;2023-09-08T07:32:16;21.10;67.20
15983;DHT22;14442;50.196;8.096;2023-09-08T07:34:43;21.10;67.30
15983;DHT22;14442;50.196;8.096;2023-09-08T07:37:10;21.10;67.30
15983;DHT22;14442;50.196;8.096;2023-09-08T07:39:37;21.10;67.40
15983;DHT22;14442;50.196;8.096;2023-09-08T07:42:04;21.20;67.50
15983;DHT22;14442;50.196;8.096;2023-09-08T07:44:32;21.20;67.60
15983;DHT22;14442;50.196;8.096;2023-09-08T07:46:58;21.20;67.70
15983;DHT22;14442;50.196;8.096;2023-09-08T07:49:25;21.20;67.80
15983;DHT22;14442;50.196;8.096;2023-09-08T07:51:52;21.20;67.80
15983;DHT22;14442;50.196;8.096;2023-09-08T07:54:19;21.20;67.80
15983;DHT22;14442;50.196;8.096;2023-09-08T07:56:45;21.20;67.70
15983;DHT22;14442;50.196;8.096;2023-09-08T07:59:12;21.20;67.80
15983;DHT22;14442;50.196;8.096;2023-09-08T08:01:40;21.20;67.80
15983;DHT22;14442;50.196;8.096;2023-09-08T08:04:07;21.10;67.80
15983;DHT22;14442;50.196;8.096;2023-09-08T08:06:33;21.10;67.80
15983;DHT22;14442;50.196;8.096;2023-09-08T08:09:00;21.10;67.70
15983;DHT22;14442;50.196;8.096;2023-09-08T08:11:27;21.20;67.80
15983;DHT22;14442;50.196;8.096;2023-09-08T08:13:54;21.10;67.70
15983;DHT22;14442;50.196;8.096;2023-09-08T08:16:22;21.10;67.70
15983;DHT22;14442;50.196;8.096;2023-09-08T08:18:50;21.20;67.70
15983;DHT22;14442;50.196;8.096;2023-09-08T08:21:17;21.20;67.70
15983;DHT22;14442;50.196;8.096;2023-09-08T08:23:43;21.20;67.70
15983;DHT22;14442;50.196;8.096;2023-09-08T08:26:10;21.20;67.70
15983;DHT22;14442;50.196;8.096;2023-09-08T08:28:37;21.20;67.70
15983;DHT22;14442;50.196;8.096;2023-09-08T08:31:03;21.20;67.80
15983;DHT22;14442;50.196;8.096;2023-09-08T08:33:30;21.20;67.70
15983;DHT22;14442;50.196;8.096;2023-09-08T08:35:58;21.20;67.80
15983;DHT22;14442;50.196;8.096;2023-09-08T08:38:25;21.20;67.80
15983;DHT22;14442;50.196;8.096;2023-09-08T08:40:52;21.30;67.90
15983;DHT22;14442;50.196;8.096;2023-09-08T08:43:19;21.30;67.90
15983;DHT22;14442;50.196;8.096;2023-09-08T08:45:48;21.30;67.80
15983;DHT22;14442;50.196;8.096;2023-09-08T08:48:16;21.30;67.90
15983;DHT22;14442;50.196;8.096;2023-09-08T08:50:44;21.30;67.90
15983;DHT22;14442;50.196;8.096;2023-09-08T08:53:12;21.30;67.90
15983;DHT22;14442;50.196;8.096;2023-09-08T08:55:39;21.30;67.80
15983;DHT22;14442;50.196;8.096;2023-09-08T08:58:07;21.30;67.80
15983;DHT22;14442;50.196;8.096;2023-09-08T09:00:34;21.40;68.00
15983;DHT22;14442;50.196;8.096;2023-09-08T09:03:04;21.30;67.90
15983;DHT22;14442;50.196;8.096;2023-09-08T09:05:32;21.40;67.90
15983;DHT22;14442;50.196;8.096;2023-09-08T09:07:59;21.40;68.00
15983;DHT22;14442;50.196;8.096;2023-09-08T09:10:30;21.40;68.10
15983;DHT22;14442;50.196;8.096;2023-09-08T09:12:57;21.50;68.20
15983;DHT22;14442;50.196;8.096;2023-09-08T09:15:28;21.40;68.10
15983;DHT22;14442;50.196;8.096;2023-09-08T09:18:02;21.40;68.20
15983;DHT22;14442;50.196;8.096;2023-09-08T09:20:29;21.40;68.20
15983;DHT22;14442;50.196;8.096;2023-09-08T09:22:56;21.40;68.10
15983;DHT22;14442;50.196;8.096;2023-09-08T09:25:23;21.40;68.00
15983;DHT22;14442;50.196;8.096;2023-09-08T09:27:53;21.40;68.00
15983;DHT22;14442;50.196;8.096;2023-09-08T09:30:21;21.40;68.00
15983;DHT22;14442;50.196;8.096;2023-09-08T09:32:48;21.40;68.60
15983;DHT22;14442;50.196;8.096;2023-09-08T09:35:15;21.40;68.00
15983;DHT22;14442;50.196;8.096;2023-09-08T09:37:42;21.40;68.00
15983;DHT22;14442;50.196;8.096;2023-09-08T09:40:09;21.50;68.10
15983;DHT22;14442;50.196;8.096;2023-09-08T09:42:38;21.50;68.10
15983;DHT22;14442;50.196;8.096;2023-09-08T09:45:07;21.50;68.10
15983;DHT22;14442;50.196;8.096;2023-09-08T09:47:34;21.50;68.30
15983;DHT22;14442;50.196;8.096;2023-09-08T09:50:01;21.50;68.00
15983;DHT22;14442;50.196;8.096;2023-09-08T09:52:28;21.50;68.00
15983;DHT22;14442;50.196;8.096;2023-09-08T09:54:58;21.50;68.00
15983;DHT22;14442;50.196;8.096;2023-09-08T09:57:25;21.50;68.00
15983;DHT22;14442;50.196;8.096;2023-09-08T09:59:53;21.50;67.90
15983;DHT22;14442;50.196;8.096;2023-09-08T10:02:23;21.60;68.00
15983;DHT22;14442;50.196;8.096;2023-09-08T10:04:51;21.60;68.00
15983;DHT22;14442;50.196;8.096;2023-09-08T10:07:18;21.50;67.80
15983;DHT22;14442;50.196;8.096;2023-09-08T10:09:45;21.60;67.90
15983;DHT22;14442;50.196;8.096;2023-09-08T10:12:14;21.60;67.90
15983;DHT22;14442;50.196;8.096;2023-09-08T10:14:42;21.60;67.80
15983;DHT22;14442;50.196;8.096;2023-09-08T10:17:12;21.60;67.80
15983;DHT22;14442;50.196;8.096;2023-09-08T10:19:44;21.60;67.80
15983;DHT22;14442;50.196;8.096;2023-09-08T10:22:20;21.60;67.80
15983;DHT22;14442;50.196;8.096;2023-09-08T10:24:50;21.60;67.70
15983;DHT22;14442;50.196;8.096;2023-09-08T10:27:17;21.60;67.70
15983;DHT22;14442;50.196;8.096;2023-09-08T10:29:47;21.60;67.70
15983;DHT22;14442;50.196;8.096;2023-09-08T10:32:14;21.60;68.30
15983;DHT22;14442;50.196;8.096;2023-09-08T10:34:43;21.60;67.70
15983;DHT22;14442;50.196;8.096;2023-09-08T10:37:21;21.60;67.60
15983;DHT22;14442;50.196;8.096;2023-09-08T10:39:48;21.70;67.70
15983;DHT22;14442;50.196;8.096;2023-09-08T10:42:22;21.70;67.70
15983;DHT22;14442;50.196;8.096;2023-09-08T10:44:57;21.70;67.60
15983;DHT22;14442;50.196;8.096;2023-09-08T10:47:25;21.70;67.60
15983;DHT22;14442;50.196;8.096;2023-09-08T10:49:53;21.70;67.60
15983;DHT22;14442;50.196;8.096;2023-09-08T10:52:23;21.70;67.50
15983;DHT22;14442;50.196;8.096;2023-09-08T10:54:52;21.70;67.40
15983;DHT22;14442;50.196;8.096;2023-09-08T10:57:21;21.70;67.40
15983;DHT22;14442;50.196;8.096;2023-09-08T10:59:51;21.70;67.40
15983;DHT22;14442;50.196;8.096;2023-09-08T11:02:36;21.80;67.40
15983;DHT22;14442;50.196;8.096;2023-09-08T11:05:06;21.80;67.30
15983;DHT22;14442;50.196;8.096;2023-09-08T11:07:35;21.80;67.30
15983;DHT22;14442;50.196;8.096;2023-09-08T11:10:02;21.80;67.30
15983;DHT22;14442;50.196;8.096;2023-09-08T11:12:30;21.80;67.20
15983;DHT22;14442;50.196;8.096;2023-09-08T11:14:58;21.80;67.20
15983;DHT22;14442;50.196;8.096;2023-09-08T11:17:26;21.90;67.20
15983;DHT22;14442;50.196;8.096;2023-09-08T11:19:54;21.90;67.10
15983;DHT22;14442;50.196;8.096;2023-09-08T11:22:23;21.90;67.10
15983;DHT22;14442;50.196;8.096;2023-09-08T11:24:51;21.90;67.00
15983;DHT22;14442;50.196;8.096;2023-09-08T11:27:18;21.90;67.00
15983;DHT22;14442;50.196;8.096;2023-09-08T11:29:45;21.90;67.00
15983;DHT22;14442;50.196;8.096;2023-09-08T11:32:13;21.90;67.00
15983;DHT22;14442;50.196;8.096;2023-09-08T11:34:39;21.90;67.00
15983;DHT22;14442;50.196;8.096;2023-09-08T11:37:08;22.00;67.00
15983;DHT22;14442;50.196;8.096;2023-09-08T11:39:38;22.00;67.00
15983;DHT22;14442;50.196;8.096;2023-09-08T11:42:05;22.00;66.90
15983;DHT22;14442;50.196;8.096;2023-09-08T11:44:32;22.00;66.90
15983;DHT22;14442;50.196;8.096;2023-09-08T11:46:59;22.10;66.90
15983;DHT22;14442;50.196;8.096;2023-09-08T11:49:26;22.10;66.80
15983;DHT22;14442;50.196;8.096;2023-09-08T11:51:53;22.10;66.70
15983;DHT22;14442;50.196;8.096;2023-09-08T11:54:19;22.10;66.70
15983;DHT22;14442;50.196;8.096;2023-09-08T11:56:48;22.20;66.70
15983;DHT22;14442;50.196;8.096;2023-09-08T11:59:15;22.10;66.50
15983;DHT22;14442;50.196;8.096;2023-09-08T12:01:42;22.20;66.60
15983;DHT22;14442;50.196;8.096;2023-09-08T12:04:17;22.20;66.60
15983;DHT22;14442;50.196;8.096;2023-09-08T12:06:44;22.20;66.50
15983;DHT22;14442;50.196;8.096;2023-09-08T12:09:12;22.30;66.50
15983;DHT22;14442;50.196;8.096;2023-09-08T12:11:39;22.30;67.10
15983;DHT22;14442;50.196;8.096;2023-09-08T12:14:11;22.30;66.40
15983;DHT22;14442;50.196;8.096;2023-09-08T12:16:38;22.40;66.40
15983;DHT22;14442;50.196;8.096;2023-09-08T12:19:05;22.40;66.30
15983;DHT22;14442;50.196;8.096;2023-09-08T12:21:34;22.60;66.40
15983;DHT22;14442;50.196;8.096;2023-09-08T12:24:01;22.60;66.40
15983;DHT22;14442;50.196;8.096;2023-09-08T12:26:28;22.60;66.30
15983;DHT22;14442;50.196;8.096;2023-09-08T12:28:55;22.60;66.30
15983;DHT22;14442;50.196;8.096;2023-09-08T12:31:24;22.70;67.10
15983;DHT22;14442;50.196;8.096;2023-09-08T12:33:50;22.70;66.30
15983;DHT22;14442;50.196;8.096;2023-09-08T12:36:19;22.70;67.10
15983;DHT22;14442;50.196;8.096;2023-09-08T12:38:50;22.70;66.40
15983;DHT22;14442;50.196;8.096;2023-09-08T12:41:17;22.70;66.30
15983;DHT22;14442;50.196;8.096;2023-09-08T12:43:44;22.80;66.40
15983;DHT22;14442;50.196;8.096;2023-09-08T12:46:11;22.80;66.30
15983;DHT22;14442;50.196;8.096;2023-09-08T12:48:39;22.80;66.30
15983;DHT22;14442;50.196;8.096;2023-09-08T12:51:06;22.90;66.40
15983;DHT22;14442;50.196;8.096;2023-09-08T12:53:34;22.90;66.40
15983;DHT22;14442;50.196;8.096;2023-09-08T12:56:01;22.90;66.30
15983;DHT22;14442;50.196;8.096;2023-09-08T12:58:28;22.90;66.40
15983;DHT22;14442;50.196;8.096;2023-09-08T13:00:55;22.90;66.40
15983;DHT22;14442;50.196;8.096;2023-09-08T13:03:22;22.90;66.30
15983;DHT22;14442;50.196;8.096;2023-09-08T13:05:50;23.00;66.30
15983;DHT22;14442;50.196;8.096;2023-09-08T13:08:17;23.00;66.20
15983;DHT22;14442;50.196;8.096;2023-09-08T13:10:43;23.10;66.20
15983;DHT22;14442;50.196;8.096;2023-09-08T13:13:10;23.10;66.30
15983;DHT22;14442;50.196;8.096;2023-09-08T13:15:37;23.10;66.30
15983;DHT22;14442;50.196;8.096;2023-09-08T13:18:04;23.10;66.10
15983;DHT22;14442;50.196;8.096;2023-09-08T13:20:31;23.10;66.20
15983;DHT22;14442;50.196;8.096;2023-09-08T13:22:59;23.10;66.10
15983;DHT22;14442;50.196;8.096;2023-09-08T13:25:25;23.10;66.20
15983;DHT22;14442;50.196;8.096;2023-09-08T13:27:52;23.20;66.00
15983;DHT22;14442;50.196;8.096;2023-09-08T13:30:19;23.20;66.00
15983;DHT22;14442;50.196;8.096;2023-09-08T13:32:47;23.20;66.10
15983;DHT22;14442;50.196;8.096;2023-09-08T13:35:14;23.30;66.10
15983;DHT22;14442;50.196;8.096;2023-09-08T13:37:41;23.30;66.10
15983;DHT22;14442;50.196;8.096;2023-09-08T13:40:09;23.30;65.90
15983;DHT22;14442;50.196;8.096;2023-09-08T13:42:36;23.30;66.00
15983;DHT22;14442;50.196;8.096;2023-09-08T13:45:04;23.30;65.80
15983;DHT22;14442;50.196;8.096;2023-09-08T13:47:31;23.40;65.80
15983;DHT22;14442;50.196;8.096;2023-09-08T13:49:58;23.40;66.00
15983;DHT22;14442;50.196;8.096;2023-09-08T13:52:25;23.40;65.70
15983;DHT22;14442;50.196;8.096;2023-09-08T13:54:51;23.40;65.70
15983;DHT22;14442;50.196;8.096;2023-09-08T13:57:19;23.40;66.00
15983;DHT22;14442;50.196;8.096;2023-09-08T13:59:46;23.50;65.80
15983;DHT22;14442;50.196;8.096;2023-09-08T14:02:13;23.50;65.60
15983;DHT22;14442;50.196;8.096;2023-09-08T14:04:40;23.50;65.50
15983;DHT22;14442;50.196;8.096;2023-09-08T14:07:07;23.50;65.50
15983;DHT22;14442;50.196;8.096;2023-09-08T14:09:34;23.50;65.50
15983;DHT22;14442;50.196;8.096;2023-09-08T14:12:01;23.60;65.50
15983;DHT22;14442;50.196;8.096;2023-09-08T14:14:29;23.60;65.70
15983;DHT22;14442;50.196;8.096;2023-09-08T14:16:56;23.60;65.70
15983;DHT22;14442;50.196;8.096;2023-09-08T14:19:23;23.60;65.70
15983;DHT22;14442;50.196;8.096;2023-09-08T14:21:49;23.60;65.50
15983;DHT22;14442;50.196;8.096;2023-09-08T14:24:16;23.60;65.30
15983;DHT22;14442;50.196;8.096;2023-09-08T14:26:43;23.60;65.50
15983;DHT22;14442;50.196;8.096;2023-09-08T14:29:10;23.60;65.40
15983;DHT22;14442;50.196;8.096;2023-09-08T14:31:38;23.70;65.30
15983;DHT22;14442;50.196;8.096;2023-09-08T14:34:05;23.70;65.40
15983;DHT22;14442;50.196;8.096;2023-09-08T14:36:31;23.70;65.40
15983;DHT22;14442;50.196;8.096;2023-09-08T14:38:58;23.70;65.20
15983;DHT22;14442;50.196;8.096;2023-09-08T14:41:25;23.70;65.20
15983;DHT22;14442;50.196;8.096;2023-09-08T14:43:52;23.70;65.20
15983;DHT22;14442;50.196;8.096;2023-09-08T14:46:18;23.80;65.20
15983;DHT22;14442;50.196;8.096;2023-09-08T14:48:47;23.80;65.30
15983;DHT22;14442;50.196;8.096;2023-09-08T14:51:13;23.70;65.30
15983;DHT22;14442;50.196;8.096;2023-09-08T14:53:40;23.80;65.40
15983;DHT22;14442;50.196;8.096;2023-09-08T14:56:07;23.80;65.30
15983;DHT22;14442;50.196;8.096;2023-09-08T14:58:33;23.80;65.30
15983;DHT22;14442;50.196;8.096;2023-09-08T15:01:01;23.80;65.30
15983;DHT22;14442;50.196;8.096;2023-09-08T15:03:30;23.80;65.40
15983;DHT22;14442;50.196;8.096;2023-09-08T15:05:58;23.80;65.40
15983;DHT22;14442;50.196;8.096;2023-09-08T15:08:25;23.70;65.10
15983;DHT22;14442;50.196;8.096;2023-09-08T15:10:52;23.80;65.20
15983;DHT22;14442;50.196;8.096;2023-09-08T15:13:19;23.70;65.10
15983;DHT22;14442;50.196;8.096;2023-09-08T15:15:45;23.80;65.20
15983;DHT22;14442;50.196;8.096;2023-09-08T15:18:13;23.70;65.10
15983;DHT22;14442;50.196;8.096;2023-09-08T15:20:39;23.70;65.20
15983;DHT22;14442;50.196;8.096;2023-09-08T15:23:08;23.70;65.20
15983;DHT22;14442;50.196;8.096;2023-09-08T15:25:34;23.70;65.20
15983;DHT22;14442;50.196;8.096;2023-09-08T15:28:01;23.70;65.30
15983;DHT22;14442;50.196;8.096;2023-09-08T15:30:28;23.80;65.60
15983;DHT22;14442;50.196;8.096;2023-09-08T15:32:55;23.80;65.60